createdAt,value
2022-10-10T00:01:14.277Z,97656.38
2022-10-10T00:03:41.586Z,97650.88
2022-10-10T00:06:08.897Z,97651.31
2022-10-10T00:08:35.952Z,97652.00
2022-10-10T00:11:03.128Z,97650.47
2022-10-10T00:13:29.628Z,97658.00
2022-10-10T00:15:56.075Z,97643.41
2022-10-10T00:18:22.621Z,97648.13
2022-10-10T00:20:51.485Z,97643.16
2022-10-10T00:23:18.798Z,97639.59
2022-10-10T00:25:45.606Z,97647.28
2022-10-10T00:28:12.735Z,97627.69
2022-10-10T00:30:39.676Z,97637.22
2022-10-10T00:33:06.442Z,97645.34
2022-10-10T00:35:33.082Z,97634.31
2022-10-10T00:37:59.529Z,97629.47
2022-10-10T00:40:26.846Z,97625.88
2022-10-10T00:42:53.781Z,97623.25
2022-10-10T00:45:39.393Z,97605.91
2022-10-10T00:48:11.968Z,97600.09
2022-10-10T00:50:59.160Z,97591.44
2022-10-10T00:53:30.727Z,97574.78
2022-10-10T00:55:57.300Z,97568.44
2022-10-10T00:58:24.324Z,97569.00
2022-10-10T01:00:52.102Z,97562.09
2022-10-10T01:03:18.620Z,97546.94
2022-10-10T01:05:47.459Z,97548.59
2022-10-10T01:08:14.846Z,97548.19
2022-10-10T01:11:06.430Z,97548.03
2022-10-10T01:13:40.675Z,97541.16
2022-10-10T01:16:10.499Z,97535.66
2022-10-10T01:18:56.572Z,97526.25
2022-10-10T01:21:37.406Z,97519.25
2022-10-10T01:24:25.552Z,97524.75
2022-10-10T01:27:04.073Z,97522.00
2022-10-10T01:29:37.232Z,97521.44
2022-10-10T01:32:11.917Z,97527.09
2022-10-10T01:35:03.519Z,97522.38
2022-10-10T01:38:00.417Z,97521.03
2022-10-10T01:40:36.285Z,97515.47
2022-10-10T01:43:06.144Z,97518.38
2022-10-10T01:45:32.748Z,97512.50
2022-10-10T01:48:03.462Z,97533.44
2022-10-10T01:50:34.915Z,97516.88
2022-10-10T01:53:14.468Z,97510.63
2022-10-10T01:55:53.359Z,97502.13
2022-10-10T01:58:55.007Z,97492.75
2022-10-10T02:01:44.095Z,97492.38
2022-10-10T02:04:16.913Z,97489.59
2022-10-10T02:07:01.715Z,97466.97
2022-10-10T02:09:34.896Z,97476.34
2022-10-10T02:12:02.238Z,97482.28
2022-10-10T02:14:34.115Z,97479.81
2022-10-10T02:17:02.234Z,97473.50
2022-10-10T02:19:30.409Z,97481.41
2022-10-10T02:21:56.893Z,97476.19
2022-10-10T02:24:24.977Z,97463.69
2022-10-10T02:27:03.260Z,97469.44
2022-10-10T02:29:34.980Z,97462.94
2022-10-10T02:32:08.346Z,97459.47
2022-10-10T02:34:39.133Z,97457.75
2022-10-10T02:37:12.439Z,97447.44
2022-10-10T02:39:48.303Z,97453.84
2022-10-10T02:42:18.016Z,97451.38
2022-10-10T02:44:46.250Z,97460.03
2022-10-10T02:47:13.173Z,97451.50
2022-10-10T02:49:39.912Z,97445.16
2022-10-10T02:52:06.846Z,97443.06
2022-10-10T02:54:33.310Z,97444.25
2022-10-10T02:56:59.828Z,97438.75
2022-10-10T02:59:26.297Z,97440.63
2022-10-10T03:01:52.685Z,97442.31
2022-10-10T03:04:19.134Z,97446.13
2022-10-10T03:06:45.790Z,97436.97
2022-10-10T03:09:12.286Z,97435.28
2022-10-10T03:11:38.738Z,97427.88
2022-10-10T03:14:05.451Z,97425.84
2022-10-10T03:16:31.856Z,97427.81
2022-10-10T03:18:58.417Z,97416.72
2022-10-10T03:21:24.771Z,97416.41
2022-10-10T03:23:51.151Z,97413.94
2022-10-10T03:26:17.592Z,97423.66
2022-10-10T03:28:44.726Z,97416.34
2022-10-10T03:31:11.298Z,97411.16
2022-10-10T03:33:37.773Z,97409.00
2022-10-10T03:36:04.696Z,97404.69
2022-10-10T03:38:31.112Z,97405.00
2022-10-10T03:40:57.507Z,97413.47
2022-10-10T03:43:23.933Z,97419.03
2022-10-10T03:45:50.489Z,97410.25
2022-10-10T03:48:17.013Z,97406.97
2022-10-10T03:50:43.435Z,97411.47
2022-10-10T03:53:10.695Z,97409.81
2022-10-10T03:55:40.566Z,97412.72
2022-10-10T03:58:07.182Z,97402.59
2022-10-10T04:00:33.648Z,97399.19
2022-10-10T04:03:00.266Z,97381.09
2022-10-10T04:05:26.678Z,97373.06
2022-10-10T04:07:53.069Z,97351.47
2022-10-10T04:10:19.560Z,97353.91
2022-10-10T04:12:46.024Z,97346.63
2022-10-10T04:15:12.479Z,97343.72
2022-10-10T04:17:38.919Z,97350.47
2022-10-10T04:20:05.617Z,97365.66
2022-10-10T04:22:32.017Z,97357.69
2022-10-10T04:24:58.572Z,97347.91
2022-10-10T04:27:25.016Z,97351.38
2022-10-10T04:29:51.399Z,97358.09
2022-10-10T04:32:17.793Z,97362.09
2022-10-10T04:34:44.257Z,97371.75
2022-10-10T04:37:10.713Z,97371.94
2022-10-10T04:39:37.190Z,97366.28
2022-10-10T04:42:03.654Z,97379.03
2022-10-10T04:44:30.333Z,97382.72
2022-10-10T04:46:56.745Z,97380.09
2022-10-10T04:49:23.203Z,97385.84
2022-10-10T04:51:49.594Z,97378.34
2022-10-10T04:54:16.041Z,97376.31
2022-10-10T04:56:42.543Z,97384.13
2022-10-10T04:59:10.108Z,97373.75
2022-10-10T05:01:36.669Z,97386.50
2022-10-10T05:04:04.266Z,97389.22
2022-10-10T05:06:30.770Z,97398.28
2022-10-10T05:08:57.219Z,97393.56
2022-10-10T05:11:23.609Z,97394.47
2022-10-10T05:13:50.710Z,97385.91
2022-10-10T05:16:17.245Z,97389.22
2022-10-10T05:18:44.138Z,97399.28
2022-10-10T05:21:11.936Z,97392.97
2022-10-10T05:23:38.788Z,97396.63
2022-10-10T05:26:05.182Z,97399.78
2022-10-10T05:28:32.008Z,97392.91
2022-10-10T05:30:58.467Z,97395.78
2022-10-10T05:33:24.888Z,97401.69
2022-10-10T05:35:51.256Z,97390.59
2022-10-10T05:38:17.959Z,97406.81
2022-10-10T05:40:44.502Z,97415.44
2022-10-10T05:43:11.156Z,97413.00
2022-10-10T05:45:37.587Z,97415.50
2022-10-10T05:48:04.140Z,97401.63
2022-10-10T05:50:32.778Z,97410.47
2022-10-10T05:52:59.420Z,97405.88
2022-10-10T05:55:26.300Z,97405.38
2022-10-10T05:57:52.788Z,97403.31
2022-10-10T06:00:19.564Z,97409.38
2022-10-10T06:02:46.008Z,97404.50
2022-10-10T06:05:12.438Z,97403.91
2022-10-10T06:08:02.361Z,97402.41
2022-10-10T06:10:25.247Z,97393.22
2022-10-10T06:12:51.938Z,97391.59
2022-10-10T06:15:18.562Z,97392.78
2022-10-10T06:17:45.025Z,97392.91
2022-10-10T06:20:11.442Z,97395.94
2022-10-10T06:22:37.893Z,97397.13
2022-10-10T06:25:09.542Z,97380.44
2022-10-10T06:27:42.154Z,97387.97
2022-10-10T06:30:08.980Z,97386.94
2022-10-10T06:32:35.573Z,97392.06
2022-10-10T06:35:02.218Z,97394.72
2022-10-10T06:37:28.576Z,97359.69
2022-10-10T06:39:54.967Z,97392.91
2022-10-10T06:42:21.375Z,97371.91
2022-10-10T06:44:47.760Z,97370.28
2022-10-10T06:47:14.192Z,97350.59
2022-10-10T06:49:40.630Z,97349.78
2022-10-10T06:52:06.999Z,97324.63
2022-10-10T06:54:33.481Z,97301.13
2022-10-10T06:56:59.910Z,97278.06
2022-10-10T06:59:26.292Z,97220.78
2022-10-10T07:01:52.726Z,97212.53
2022-10-10T07:04:19.374Z,97259.75
2022-10-10T07:06:45.796Z,97428.25
2022-10-10T07:09:12.273Z,97542.41
2022-10-10T07:11:39.477Z,97609.69
2022-10-10T07:14:05.930Z,97690.66
2022-10-10T07:16:33.989Z,97745.28
2022-10-10T07:19:00.384Z,97844.06
2022-10-10T07:21:27.691Z,97972.50
2022-10-10T07:23:54.839Z,98116.47
2022-10-10T07:26:22.506Z,98226.50
2022-10-10T07:28:49.540Z,98257.31
2022-10-10T07:31:15.994Z,98341.81
2022-10-10T07:33:49.889Z,98478.75
2022-10-10T07:36:16.775Z,98585.31
2022-10-10T07:38:43.164Z,98622.44
2022-10-10T07:41:13.174Z,98698.75
2022-10-10T07:43:39.802Z,98753.81
2022-10-10T07:46:13.656Z,98817.41
2022-10-10T07:48:40.660Z,98846.53
2022-10-10T07:51:07.361Z,98869.28
2022-10-10T07:53:33.801Z,98851.94
2022-10-10T07:56:00.291Z,98869.09
2022-10-10T07:58:26.852Z,98901.50
2022-10-10T08:01:02.833Z,98891.03
2022-10-10T08:03:29.248Z,98901.88
2022-10-10T08:05:55.948Z,98902.56
2022-10-10T08:08:22.519Z,98933.38
2022-10-10T08:10:48.985Z,98909.38
2022-10-10T08:13:15.388Z,98889.88
2022-10-10T08:15:41.887Z,98924.44
2022-10-10T08:18:08.414Z,98908.91
2022-10-10T08:20:34.821Z,98898.69
2022-10-10T08:23:01.287Z,98887.78
2022-10-10T08:25:27.773Z,98893.41
2022-10-10T08:27:54.233Z,98888.38
2022-10-10T08:30:20.608Z,98883.53
2022-10-10T08:32:47.003Z,98871.06
2022-10-10T08:35:13.436Z,98894.00
2022-10-10T08:37:39.851Z,98899.50
2022-10-10T08:40:07.322Z,98887.94
2022-10-10T08:42:43.700Z,98912.09
2022-10-10T08:45:19.048Z,98888.94
2022-10-10T08:47:50.078Z,98906.72
2022-10-10T08:50:36.273Z,98902.63
2022-10-10T08:53:13.439Z,98917.31
2022-10-10T08:55:43.485Z,98892.63
2022-10-10T08:58:19.519Z,98899.44
2022-10-10T09:00:54.949Z,98905.16
2022-10-10T09:03:35.068Z,98921.53
2022-10-10T09:06:45.189Z,98954.66
2022-10-10T09:09:34.127Z,98977.25
2022-10-10T09:12:23.142Z,99009.38
2022-10-10T09:15:14.341Z,99024.91
2022-10-10T09:17:48.136Z,98991.91
2022-10-10T09:20:36.496Z,99009.88
2022-10-10T09:23:19.620Z,98999.28
2022-10-10T09:26:01.387Z,99023.13
2022-10-10T09:28:46.962Z,99023.72
2022-10-10T09:31:33.961Z,99009.00
2022-10-10T09:34:12.315Z,99013.06
2022-10-10T09:36:38.943Z,99010.31
2022-10-10T09:39:33.055Z,99014.31
2022-10-10T09:42:13.472Z,99017.31
2022-10-10T09:44:41.590Z,99015.28
2022-10-10T09:47:14.048Z,99037.47
2022-10-10T09:49:41.612Z,99035.81
2022-10-10T09:52:31.711Z,99031.72
2022-10-10T09:55:18.653Z,99030.59
2022-10-10T09:57:46.857Z,99018.38
2022-10-10T10:00:19.102Z,99036.59
2022-10-10T10:02:50.402Z,99026.44
2022-10-10T10:05:26.260Z,99032.25
2022-10-10T10:07:53.058Z,99030.41
2022-10-10T10:10:24.411Z,99033.22
2022-10-10T10:12:52.064Z,99023.09
2022-10-10T10:15:20.331Z,99030.81
2022-10-10T10:17:46.969Z,99033.06
2022-10-10T10:20:28.711Z,99022.66
2022-10-10T10:22:55.432Z,99016.91
2022-10-10T10:25:33.545Z,99021.50
2022-10-10T10:28:12.107Z,99024.38
2022-10-10T10:30:40.386Z,99024.66
2022-10-10T10:33:35.783Z,99030.03
2022-10-10T10:36:12.192Z,99019.38
2022-10-10T10:39:09.224Z,99008.94
2022-10-10T10:41:45.776Z,99022.44
2022-10-10T10:44:33.052Z,99019.00
2022-10-10T10:47:20.746Z,99021.63
2022-10-10T10:50:08.410Z,99019.69
2022-10-10T10:52:49.899Z,99022.66
2022-10-10T10:55:41.627Z,99014.09
2022-10-10T11:01:56.798Z,99018.56
2022-10-10T11:05:22.472Z,99016.22
2022-10-10T11:07:26.411Z,98999.94
2022-10-10T11:10:01.598Z,99006.81
2022-10-10T11:12:40.177Z,99023.38
2022-10-10T11:16:01.458Z,99016.00
2022-10-10T11:18:43.314Z,99002.66
2022-10-10T11:21:34.078Z,99003.59
2022-10-10T11:24:11.950Z,99008.81
2022-10-10T11:26:44.148Z,99000.84
2022-10-10T11:29:30.560Z,98999.38
2022-10-10T11:32:16.828Z,98997.25
2022-10-10T11:35:15.213Z,99001.59
2022-10-10T11:37:46.535Z,98990.44
2022-10-10T11:40:53.631Z,98996.88
2022-10-10T11:43:34.978Z,98987.44
2022-10-10T11:46:11.372Z,98997.91
2022-10-10T11:49:02.962Z,98993.63
2022-10-10T11:51:44.010Z,98991.31
2022-10-10T11:54:24.059Z,98998.28
2022-10-10T11:56:53.640Z,98994.38
2022-10-10T11:59:28.854Z,98985.63
2022-10-10T12:04:35.609Z,98985.38
2022-10-10T12:07:19.625Z,98973.84
2022-10-10T12:09:54.407Z,98967.59
2022-10-10T12:12:33.125Z,98983.09
2022-10-10T12:15:03.939Z,98978.16
2022-10-10T12:17:36.038Z,98982.81
2022-10-10T12:20:14.597Z,98975.53
2022-10-10T12:22:41.899Z,98976.16
2022-10-10T12:25:11.463Z,98963.91
2022-10-10T12:28:03.440Z,98977.03
2022-10-10T12:30:30.210Z,98971.38
2022-10-10T12:32:57.424Z,98976.31
2022-10-10T12:35:40.011Z,98968.88
2022-10-10T12:38:15.363Z,98971.91
2022-10-10T12:41:15.298Z,98959.38
2022-10-10T12:43:49.938Z,98960.19
2022-10-10T12:46:31.084Z,98941.75
2022-10-10T12:49:13.653Z,98943.59
2022-10-10T12:51:41.616Z,98953.13
2022-10-10T12:54:08.765Z,98928.28
2022-10-10T12:56:43.737Z,98956.78
2022-10-10T12:59:22.555Z,98937.34
2022-10-10T13:01:58.442Z,98929.59
2022-10-10T13:04:26.251Z,98955.50
2022-10-10T13:06:56.602Z,98945.19
2022-10-10T13:09:34.895Z,98936.09
2022-10-10T13:12:04.937Z,98947.09
2022-10-10T13:14:45.327Z,98937.09
2022-10-10T13:17:27.410Z,98930.13
2022-10-10T13:19:55.443Z,98927.34
2022-10-10T13:22:22.518Z,98910.09
2022-10-10T13:24:50.399Z,98910.53
2022-10-10T13:27:31.095Z,98916.69
2022-10-10T13:29:57.659Z,98919.97
2022-10-10T13:32:27.405Z,98923.44
2022-10-10T13:34:59.753Z,98924.44
2022-10-10T13:37:27.075Z,98912.66
2022-10-10T13:39:54.524Z,98926.31
2022-10-10T13:42:36.467Z,98918.84
2022-10-10T13:45:29.299Z,98926.09
2022-10-10T13:48:11.876Z,98913.53
2022-10-10T13:50:44.081Z,98922.03
2022-10-10T13:53:29.177Z,98904.50
2022-10-10T13:56:20.886Z,98897.72
2022-10-10T13:58:52.049Z,98893.84
2022-10-10T14:01:25.705Z,98891.69
2022-10-10T14:03:55.665Z,98883.94
2022-10-10T14:06:25.661Z,98888.28
2022-10-10T14:08:54.634Z,98900.47
2022-10-10T14:11:24.051Z,98887.63
2022-10-10T14:13:55.040Z,98893.44
2022-10-10T14:16:24.561Z,98900.56
2022-10-10T14:18:51.634Z,98896.81
2022-10-10T14:21:18.253Z,98904.28
2022-10-10T14:23:44.814Z,98893.00
2022-10-10T14:26:15.841Z,98896.28
2022-10-10T14:28:43.041Z,98891.47
2022-10-10T14:31:09.795Z,98884.47
2022-10-10T14:33:36.547Z,98883.94
2022-10-10T14:36:04.249Z,98885.34
2022-10-10T14:38:30.685Z,98884.19
2022-10-10T14:40:57.152Z,98869.09
2022-10-10T14:43:24.455Z,98871.78
2022-10-10T14:45:52.513Z,98864.59
2022-10-10T14:48:19.570Z,98871.31
2022-10-10T14:50:47.903Z,98867.97
2022-10-10T14:53:16.973Z,98868.38
2022-10-10T14:55:44.127Z,98850.09
2022-10-10T14:58:19.760Z,98846.59
2022-10-10T15:00:47.030Z,98846.44
2022-10-10T15:03:14.083Z,98852.38
2022-10-10T15:05:41.183Z,98840.22
2022-10-10T15:08:08.229Z,98851.16
2022-10-10T15:10:35.412Z,98842.34
2022-10-10T15:13:03.497Z,98855.88
2022-10-10T15:15:30.400Z,98858.22
2022-10-10T15:18:00.714Z,98853.66
2022-10-10T15:20:33.314Z,98847.13
2022-10-10T15:23:02.491Z,98860.50
2022-10-10T15:25:33.392Z,98849.84
2022-10-10T15:28:00.793Z,98847.50
2022-10-10T15:30:27.244Z,98842.69
2022-10-10T15:32:53.655Z,98844.81
2022-10-10T15:35:22.467Z,98835.50
2022-10-10T15:37:49.180Z,98843.03
2022-10-10T15:40:19.789Z,98831.75
2022-10-10T15:42:47.297Z,98824.19
2022-10-10T15:45:22.622Z,98824.31
2022-10-10T15:47:58.287Z,98823.19
2022-10-10T15:50:26.981Z,98825.88
2022-10-10T15:52:53.580Z,98810.56
2022-10-10T15:55:20.015Z,98807.63
2022-10-10T15:57:46.396Z,98814.00
2022-10-10T16:00:13.547Z,98810.44
2022-10-10T16:02:39.963Z,98806.88
2022-10-10T16:05:08.398Z,98820.16
2022-10-10T16:07:42.118Z,98805.69
2022-10-10T16:10:13.325Z,98805.25
2022-10-10T16:12:39.723Z,98802.28
2022-10-10T16:15:07.411Z,98788.84
2022-10-10T16:17:34.091Z,98797.59
2022-10-10T16:20:00.506Z,98801.69
2022-10-10T16:22:26.904Z,98790.84
2022-10-10T16:25:17.295Z,98801.13
2022-10-10T16:27:40.067Z,98800.19
2022-10-10T16:30:07.795Z,98796.41
2022-10-10T16:32:39.313Z,98802.47
2022-10-10T16:35:08.605Z,98804.25
2022-10-10T16:37:35.173Z,98800.63
2022-10-10T16:40:01.645Z,98808.00
2022-10-10T16:42:28.133Z,98800.56
2022-10-10T16:44:54.578Z,98803.75
2022-10-10T16:47:21.098Z,98808.31
2022-10-10T16:49:47.477Z,98810.22
2022-10-10T16:52:13.900Z,98808.16
2022-10-10T16:54:40.316Z,98816.25
2022-10-10T16:57:06.743Z,98822.50
2022-10-10T16:59:34.732Z,98816.97
2022-10-10T17:02:01.132Z,98803.09
2022-10-10T17:04:27.518Z,98799.78
2022-10-10T17:06:53.927Z,98818.50
2022-10-10T17:09:20.558Z,98822.53
2022-10-10T17:11:51.051Z,98821.84
2022-10-10T17:14:18.190Z,98816.63
2022-10-10T17:17:11.626Z,98815.06
2022-10-10T17:19:32.087Z,98814.63
2022-10-10T17:21:59.573Z,98811.66
2022-10-10T17:24:26.043Z,98821.59
2022-10-10T17:26:52.968Z,98831.91
2022-10-10T17:29:19.513Z,98831.28
2022-10-10T17:31:45.941Z,98831.41
2022-10-10T17:34:12.511Z,98833.00
2022-10-10T17:36:39.049Z,98833.81
2022-10-10T17:39:07.427Z,98841.66
2022-10-10T17:41:34.133Z,98839.63
2022-10-10T17:44:00.797Z,98851.00
2022-10-10T17:46:36.558Z,98848.03
2022-10-10T17:49:05.656Z,98846.03
2022-10-10T17:51:32.635Z,98850.50
2022-10-10T17:53:59.638Z,98854.06
2022-10-10T17:56:26.073Z,98844.13
2022-10-10T17:58:52.800Z,98846.41
2022-10-10T18:01:20.355Z,98853.66
2022-10-10T18:03:47.924Z,98859.72
2022-10-10T18:06:17.003Z,98865.81
2022-10-10T18:08:43.389Z,98870.91
2022-10-10T18:11:17.952Z,98870.41
2022-10-10T18:13:44.657Z,98875.19
2022-10-10T18:16:13.459Z,98881.72
2022-10-10T18:18:41.125Z,98881.03
2022-10-10T18:21:09.813Z,98876.47
2022-10-10T18:23:36.778Z,98880.28
2022-10-10T18:26:22.012Z,98873.16
2022-10-10T18:28:49.157Z,98874.00
2022-10-10T18:31:21.386Z,98875.56
2022-10-10T18:33:48.014Z,98859.41
2022-10-10T18:36:17.165Z,98858.59
2022-10-10T18:38:43.616Z,98857.13
2022-10-10T18:41:13.292Z,98854.38
2022-10-10T18:43:40.749Z,98838.06
2022-10-10T18:46:10.016Z,98841.06
2022-10-10T18:48:36.696Z,98823.09
2022-10-10T18:51:05.991Z,98819.25
2022-10-10T18:53:41.808Z,98824.19
2022-10-10T18:56:09.406Z,98830.47
2022-10-10T18:58:36.792Z,98831.19
2022-10-10T19:01:12.095Z,98824.72
2022-10-10T19:03:40.179Z,98814.44
2022-10-10T19:06:09.165Z,98792.19
2022-10-10T19:08:36.185Z,98784.88
2022-10-10T19:11:04.001Z,98769.56
2022-10-10T19:13:31.114Z,98762.28
2022-10-10T19:16:06.889Z,98758.22
2022-10-10T19:18:34.384Z,98743.56
2022-10-10T19:21:03.243Z,98748.44
2022-10-10T19:23:30.562Z,98740.25
2022-10-10T19:26:01.736Z,98730.09
2022-10-10T19:28:28.179Z,98723.09
2022-10-10T19:30:54.647Z,98718.47
2022-10-10T19:33:21.407Z,98713.16
2022-10-10T19:35:51.264Z,98698.66
2022-10-10T19:38:19.340Z,98713.25
2022-10-10T19:40:47.361Z,98709.63
2022-10-10T19:43:14.973Z,98715.91
2022-10-10T19:45:51.323Z,98715.59
2022-10-10T19:48:19.881Z,98695.28
2022-10-10T19:50:47.398Z,98691.28
2022-10-10T19:53:19.770Z,98683.69
2022-10-10T19:55:57.643Z,98669.13
2022-10-10T19:58:24.124Z,98681.47
2022-10-10T20:00:50.682Z,98679.44
2022-10-10T20:03:19.234Z,98687.84
2022-10-10T20:05:45.890Z,98690.50
2022-10-10T20:08:12.661Z,98692.91
2022-10-10T20:10:40.805Z,98682.50
2022-10-10T20:13:11.426Z,98666.41
2022-10-10T20:15:42.227Z,98644.41
2022-10-10T20:18:08.673Z,98638.50
2022-10-10T20:20:35.650Z,98637.84
2022-10-10T20:23:02.125Z,98629.22
2022-10-10T20:25:28.608Z,98625.19
2022-10-10T20:27:54.988Z,98630.94
2022-10-10T20:30:21.426Z,98623.00
2022-10-10T20:32:47.887Z,98626.81
2022-10-10T20:35:14.528Z,98627.19
2022-10-10T20:37:40.983Z,98623.78
2022-10-10T20:40:08.055Z,98619.50
2022-10-10T20:42:34.457Z,98608.31
2022-10-10T20:45:00.882Z,98618.09
2022-10-10T20:47:27.280Z,98623.22
2022-10-10T20:49:53.677Z,98649.00
2022-10-10T20:52:20.054Z,98636.69
2022-10-10T20:54:46.445Z,98644.03
2022-10-10T20:57:12.875Z,98643.53
2022-10-10T20:59:39.593Z,98650.00
2022-10-10T21:02:06.211Z,98644.53
2022-10-10T21:04:32.732Z,98640.06
2022-10-10T21:06:59.108Z,98646.41
2022-10-10T21:09:25.478Z,98652.31
2022-10-10T21:11:52.036Z,98663.03
2022-10-10T21:14:19.098Z,98671.50
2022-10-10T21:16:45.855Z,98681.31
2022-10-10T21:19:12.883Z,98669.22
2022-10-10T21:21:39.607Z,98667.44
2022-10-10T21:24:07.931Z,98650.22
2022-10-10T21:26:34.637Z,98636.25
2022-10-10T21:29:01.207Z,98617.13
2022-10-10T21:31:36.043Z,98613.09
2022-10-10T21:34:04.680Z,98626.69
2022-10-10T21:36:31.980Z,98634.53
2022-10-10T21:38:59.478Z,98644.47
2022-10-10T21:41:26.340Z,98667.75
2022-10-10T21:43:55.859Z,98685.53
2022-10-10T21:46:27.700Z,98691.50
2022-10-10T21:48:55.459Z,98685.19
2022-10-10T21:51:21.926Z,98688.34
2022-10-10T21:53:48.469Z,98709.28
2022-10-10T21:56:15.394Z,98733.41
2022-10-10T21:58:43.419Z,98730.25
2022-10-10T22:01:15.902Z,98723.00
2022-10-10T22:03:44.165Z,98697.44
2022-10-10T22:06:13.389Z,98696.13
2022-10-10T22:08:41.008Z,98674.88
2022-10-10T22:11:19.911Z,98654.13
2022-10-10T22:13:47.098Z,98626.19
2022-10-10T22:16:13.707Z,98617.91
2022-10-10T22:18:40.699Z,98604.28
2022-10-10T22:21:10.478Z,98586.84
2022-10-10T22:23:37.909Z,98560.88
2022-10-10T22:26:08.735Z,98527.41
2022-10-10T22:28:35.589Z,98492.56
2022-10-10T22:31:08.222Z,98466.06
2022-10-10T22:33:34.850Z,98479.84
2022-10-10T22:36:01.650Z,98510.72
2022-10-10T22:38:28.682Z,98538.66
2022-10-10T22:40:55.154Z,98557.59
2022-10-10T22:43:26.053Z,98575.91
2022-10-10T22:45:53.348Z,98595.03
2022-10-10T22:48:19.883Z,98597.00
2022-10-10T22:50:46.305Z,98613.16
2022-10-10T22:53:12.655Z,98612.97
2022-10-10T22:55:39.076Z,98611.00
2022-10-10T22:58:05.480Z,98617.31
2022-10-10T23:00:31.962Z,98630.41
2022-10-10T23:02:58.564Z,98629.78
2022-10-10T23:05:26.146Z,98642.72
2022-10-10T23:07:52.609Z,98636.75
2022-10-10T23:10:19.088Z,98648.22
2022-10-10T23:12:45.541Z,98635.91
2022-10-10T23:15:11.908Z,98649.00
2022-10-10T23:17:38.370Z,98666.66
2022-10-10T23:20:05.411Z,98668.16
2022-10-10T23:22:31.839Z,98670.97
2022-10-10T23:24:58.319Z,98669.63
2022-10-10T23:27:24.721Z,98662.00
2022-10-10T23:29:51.108Z,98661.16
2022-10-10T23:32:17.492Z,98658.03
2022-10-10T23:34:43.856Z,98651.38
2022-10-10T23:37:10.267Z,98648.06
2022-10-10T23:39:36.732Z,98635.25
2022-10-10T23:42:03.133Z,98655.38
2022-10-10T23:44:29.622Z,98640.72
2022-10-10T23:46:56.014Z,98648.06
2022-10-10T23:49:22.495Z,98639.75
2022-10-10T23:51:48.923Z,98654.22
2022-10-10T23:54:15.325Z,98667.19
2022-10-10T23:56:41.700Z,98664.03
2022-10-10T23:59:08.117Z,98674.00
